Airfield :







YOU CAN JOIN US ON...

 
LOGIN :

Register | Disclaimer

   EN    FR    IT 

 









Legend :    VFR   Marginal VFR   IFR   Intensive IFR   Very Intensive IFR
Visi :
Ceiling :
>= 8 km
>= 3000ft
5 to 8 km
1000 to 3000 ft
1500m to 5 km
500 to 1000 ft
800 to 1500m
200 to 500 ft
< 800m
< 200 ft
Symbols :   Thunderstorms  Fog  Heavy snow  Heavy precipitations  Wind > 20 kt






- Airport Elevation : 68 ft
- IATA code : YFC


CYFC - Fredericton

CURRENT METAR :
  • 230200Z AUTO 35013KT 5SM -RA BR BKN017 OVC023 08/08 A2964 RMK SLP040

EXPIRED METARs :
  • 230148Z AUTO 35012G18KT 5SM -RA BR BKN015 OVC021 08/08 A2965 RMK SLP042
  • 230137Z AUTO 35014KT 6SM -RA BR BKN016 OVC022 08/08 A2965 RMK SLP044
  • 230100Z AUTO 35014G19KT 5SM RA BR BKN016 BKN021 OVC033 08/08 A2967 RMK PRESFR SLP051
  • 230043Z AUTO 35014G20KT 5SM RA BR BKN017 BKN043 OVC050 08/08 A2969 RMK PRESFR SLP057
  • 230040Z AUTO 36014G21KT 5SM RA BR FEW011 SCT018 OVC045 08/08 A2969 RMK SLP057
  • 230033Z AUTO 36015G21KT 5SM RA BR SCT015 SCT020 OVC045 08/08 A2970 RMK SLP059
  • 230021Z AUTO 36012G19KT 5SM +RA BR FEW011 BKN017 OVC045 08/08 A2971 RMK PRESFR SLP063
  • 230000Z AUTO 01011G16KT 5SM RA BR BKN015 OVC020 08/08 A2973 RMK PCPN 5.2MM PAST HR SLP071

TAF AMD TAF CYFC
Valid from the 23 at 01:00 until the 23 at 12:00 UTC


230131Z 2301/2312 35012G22KT 6SM -RA BR BKN015 OVC030
TEMPO 2301/2303 3SM SHRA BR BKN008 OVC015
FM230300 35012G22KT 5SM -SHRA BR OVC012
TEMPO 2303/2312 P6SM NSW SCT012 OVC030 RMK FCST BASED ON AUTO OBS. NXT FCST BY 230600Z
CZQM FIR / North America



MET'MAP, your aeronautical weather chart ! - Copyright ORBIFLY December 2007 - Disclaimer

ORBIFLY MET'MAP TEAM :

Programming & Development : Alexandra Zaïnal
Concept & original design : Baudouin d'Aumeries
Assistance for programming : Marc-Olivier Méhu
Technical & hardware support : Manuel Goepfert

Contact : metmap@orbifly.com




SOURCES & CREDITS :

   NOAA